sensor_id;sensor_type;location;lat;lon;timestamp;P1;durP1;ratioP1;P2;durP2;ratioP2
55224;SDS011;41091;49.400;8.684;2023-04-06T00:01:53;3.42;;;3.13;;
55224;SDS011;41091;49.400;8.684;2023-04-06T00:04:21;9.38;;;3.75;;
55224;SDS011;41091;49.400;8.684;2023-04-06T00:06:52;4.60;;;2.95;;
55224;SDS011;41091;49.400;8.684;2023-04-06T00:09:17;4.13;;;2.88;;
55224;SDS011;41091;49.400;8.684;2023-04-06T00:11:45;3.30;;;2.95;;
55224;SDS011;41091;49.400;8.684;2023-04-06T00:14:13;5.95;;;3.80;;
55224;SDS011;41091;49.400;8.684;2023-04-06T00:16:39;4.28;;;3.88;;
55224;SDS011;41091;49.400;8.684;2023-04-06T00:19:09;5.35;;;2.97;;
55224;SDS011;41091;49.400;8.684;2023-04-06T00:21:35;3.55;;;3.25;;
55224;SDS011;41091;49.400;8.684;2023-04-06T00:24:00;3.67;;;3.38;;
55224;SDS011;41091;49.400;8.684;2023-04-06T00:26:28;5.93;;;4.28;;
55224;SDS011;41091;49.400;8.684;2023-04-06T00:28:54;9.90;;;4.28;;
55224;SDS011;41091;49.400;8.684;2023-04-06T00:31:19;8.60;;;5.45;;
55224;SDS011;41091;49.400;8.684;2023-04-06T00:33:50;7.57;;;4.45;;
55224;SDS011;41091;49.400;8.684;2023-04-06T00:36:16;5.80;;;5.20;;
55224;SDS011;41091;49.400;8.684;2023-04-06T00:38:41;7.00;;;4.93;;
55224;SDS011;41091;49.400;8.684;2023-04-06T00:41:08;7.03;;;5.72;;
55224;SDS011;41091;49.400;8.684;2023-04-06T00:43:36;7.72;;;5.43;;
55224;SDS011;41091;49.400;8.684;2023-04-06T00:46:04;10.55;;;5.57;;
55224;SDS011;41091;49.400;8.684;2023-04-06T00:48:30;9.48;;;6.32;;
55224;SDS011;41091;49.400;8.684;2023-04-06T00:50:56;8.32;;;5.80;;
55224;SDS011;41091;49.400;8.684;2023-04-06T00:53:22;12.75;;;6.50;;
55224;SDS011;41091;49.400;8.684;2023-04-06T00:55:50;14.18;;;6.35;;
55224;SDS011;41091;49.400;8.684;2023-04-06T00:58:20;7.57;;;6.75;;
55224;SDS011;41091;49.400;8.684;2023-04-06T01:00:50;14.57;;;6.63;;
55224;SDS011;41091;49.400;8.684;2023-04-06T01:03:18;10.75;;;6.78;;
55224;SDS011;41091;49.400;8.684;2023-04-06T01:05:45;10.75;;;7.32;;
55224;SDS011;41091;49.400;8.684;2023-04-06T01:08:13;14.82;;;8.13;;
55224;SDS011;41091;49.400;8.684;2023-04-06T01:10:41;12.85;;;7.68;;
55224;SDS011;41091;49.400;8.684;2023-04-06T01:13:06;13.57;;;7.53;;
55224;SDS011;41091;49.400;8.684;2023-04-06T01:15:35;15.82;;;7.90;;
55224;SDS011;41091;49.400;8.684;2023-04-06T01:18:03;10.82;;;7.88;;
55224;SDS011;41091;49.400;8.684;2023-04-06T01:20:32;10.98;;;6.82;;
55224;SDS011;41091;49.400;8.684;2023-04-06T01:23:00;13.75;;;7.25;;
55224;SDS011;41091;49.400;8.684;2023-04-06T01:25:27;14.77;;;7.15;;
55224;SDS011;41091;49.400;8.684;2023-04-06T01:27:53;9.80;;;7.15;;
55224;SDS011;41091;49.400;8.684;2023-04-06T01:30:23;7.65;;;6.47;;
55224;SDS011;41091;49.400;8.684;2023-04-06T01:32:51;8.32;;;5.97;;
55224;SDS011;41091;49.400;8.684;2023-04-06T01:35:19;10.57;;;5.53;;
55224;SDS011;41091;49.400;8.684;2023-04-06T01:37:44;9.02;;;5.82;;
55224;SDS011;41091;49.400;8.684;2023-04-06T01:40:10;7.15;;;5.50;;
55224;SDS011;41091;49.400;8.684;2023-04-06T01:42:41;8.88;;;4.47;;
55224;SDS011;41091;49.400;8.684;2023-04-06T01:45:08;7.00;;;4.68;;
55224;SDS011;41091;49.400;8.684;2023-04-06T01:47:34;5.78;;;3.63;;
55224;SDS011;41091;49.400;8.684;2023-04-06T01:49:59;6.03;;;3.70;;
55224;SDS011;41091;49.400;8.684;2023-04-06T01:52:25;4.25;;;3.85;;
55224;SDS011;41091;49.400;8.684;2023-04-06T01:54:50;4.88;;;3.50;;
55224;SDS011;41091;49.400;8.684;2023-04-06T01:57:16;6.15;;;4.57;;
55224;SDS011;41091;49.400;8.684;2023-04-06T01:59:41;6.07;;;3.65;;
55224;SDS011;41091;49.400;8.684;2023-04-06T02:02:06;4.40;;;4.05;;
55224;SDS011;41091;49.400;8.684;2023-04-06T02:04:32;4.05;;;3.65;;
55224;SDS011;41091;49.400;8.684;2023-04-06T02:06:57;5.35;;;3.47;;
55224;SDS011;41091;49.400;8.684;2023-04-06T02:09:25;6.75;;;3.83;;
55224;SDS011;41091;49.400;8.684;2023-04-06T02:11:50;5.95;;;4.05;;
55224;SDS011;41091;49.400;8.684;2023-04-06T02:14:16;7.43;;;4.20;;
55224;SDS011;41091;49.400;8.684;2023-04-06T02:16:41;5.45;;;3.47;;
55224;SDS011;41091;49.400;8.684;2023-04-06T02:19:06;4.40;;;4.10;;
55224;SDS011;41091;49.400;8.684;2023-04-06T02:21:34;4.85;;;4.10;;
55224;SDS011;41091;49.400;8.684;2023-04-06T02:23:59;4.68;;;4.10;;
55224;SDS011;41091;49.400;8.684;2023-04-06T02:26:25;7.57;;;4.20;;
55224;SDS011;41091;49.400;8.684;2023-04-06T02:28:50;4.50;;;4.10;;
55224;SDS011;41091;49.400;8.684;2023-04-06T02:31:18;8.20;;;4.63;;
55224;SDS011;41091;49.400;8.684;2023-04-06T02:33:43;6.40;;;4.32;;
55224;SDS011;41091;49.400;8.684;2023-04-06T02:36:09;7.30;;;4.35;;
55224;SDS011;41091;49.400;8.684;2023-04-06T02:38:34;6.35;;;5.07;;
55224;SDS011;41091;49.400;8.684;2023-04-06T02:41:00;5.10;;;4.60;;
55224;SDS011;41091;49.400;8.684;2023-04-06T02:43:25;7.53;;;4.68;;
55224;SDS011;41091;49.400;8.684;2023-04-06T02:45:50;8.32;;;4.95;;
55224;SDS011;41091;49.400;8.684;2023-04-06T02:48:16;4.88;;;4.03;;
55224;SDS011;41091;49.400;8.684;2023-04-06T02:50:41;4.78;;;4.20;;
55224;SDS011;41091;49.400;8.684;2023-04-06T02:53:06;6.53;;;4.65;;
55224;SDS011;41091;49.400;8.684;2023-04-06T02:55:32;6.40;;;4.65;;
55224;SDS011;41091;49.400;8.684;2023-04-06T02:57:57;10.68;;;5.03;;
55224;SDS011;41091;49.400;8.684;2023-04-06T03:00:25;8.27;;;4.93;;
55224;SDS011;41091;49.400;8.684;2023-04-06T03:02:51;4.43;;;3.97;;
55224;SDS011;41091;49.400;8.684;2023-04-06T03:05:16;4.32;;;3.30;;
55224;SDS011;41091;49.400;8.684;2023-04-06T03:07:41;9.73;;;4.45;;
55224;SDS011;41091;49.400;8.684;2023-04-06T03:10:07;4.38;;;3.65;;
55224;SDS011;41091;49.400;8.684;2023-04-06T03:12:34;4.72;;;4.28;;
55224;SDS011;41091;49.400;8.684;2023-04-06T03:14:59;7.70;;;4.97;;
55224;SDS011;41091;49.400;8.684;2023-04-06T03:17:27;6.32;;;5.13;;
55224;SDS011;41091;49.400;8.684;2023-04-06T03:19:53;11.18;;;6.55;;
55224;SDS011;41091;49.400;8.684;2023-04-06T03:22:19;7.18;;;6.38;;
55224;SDS011;41091;49.400;8.684;2023-04-06T03:24:44;7.95;;;6.43;;
55224;SDS011;41091;49.400;8.684;2023-04-06T03:27:10;6.18;;;5.10;;
55224;SDS011;41091;49.400;8.684;2023-04-06T03:29:35;6.70;;;5.55;;
55224;SDS011;41091;49.400;8.684;2023-04-06T03:32:01;13.27;;;6.10;;
55224;SDS011;41091;49.400;8.684;2023-04-06T03:34:29;6.43;;;5.15;;
55224;SDS011;41091;49.400;8.684;2023-04-06T03:36:55;6.65;;;6.05;;
55224;SDS011;41091;49.400;8.684;2023-04-06T03:39:20;10.25;;;5.72;;
55224;SDS011;41091;49.400;8.684;2023-04-06T03:41:45;9.90;;;6.00;;
55224;SDS011;41091;49.400;8.684;2023-04-06T03:44:11;9.02;;;6.05;;
55224;SDS011;41091;49.400;8.684;2023-04-06T03:46:36;7.63;;;5.20;;
55224;SDS011;41091;49.400;8.684;2023-04-06T03:49:01;9.80;;;6.13;;
55224;SDS011;41091;49.400;8.684;2023-04-06T03:51:27;7.70;;;5.95;;
55224;SDS011;41091;49.400;8.684;2023-04-06T03:53:55;8.10;;;5.70;;
55224;SDS011;41091;49.400;8.684;2023-04-06T03:56:21;9.90;;;6.05;;
55224;SDS011;41091;49.400;8.684;2023-04-06T03:58:46;7.18;;;5.88;;
55224;SDS011;41091;49.400;8.684;2023-04-06T04:01:16;10.02;;;6.00;;
55224;SDS011;41091;49.400;8.684;2023-04-06T04:03:44;9.20;;;5.85;;
55224;SDS011;41091;49.400;8.684;2023-04-06T04:06:12;7.43;;;5.90;;
55224;SDS011;41091;49.400;8.684;2023-04-06T04:08:37;8.20;;;5.53;;
55224;SDS011;41091;49.400;8.684;2023-04-06T04:11:03;12.55;;;6.45;;
55224;SDS011;41091;49.400;8.684;2023-04-06T04:13:28;16.02;;;6.30;;
55224;SDS011;41091;49.400;8.684;2023-04-06T04:15:53;9.05;;;6.90;;
55224;SDS011;41091;49.400;8.684;2023-04-06T04:18:21;13.48;;;6.63;;
55224;SDS011;41091;49.400;8.684;2023-04-06T04:20:49;5.80;;;5.35;;
55224;SDS011;41091;49.400;8.684;2023-04-06T04:23:14;8.80;;;6.10;;
55224;SDS011;41091;49.400;8.684;2023-04-06T04:25:40;8.27;;;5.75;;
55224;SDS011;41091;49.400;8.684;2023-04-06T04:28:10;12.18;;;6.55;;
55224;SDS011;41091;49.400;8.684;2023-04-06T04:30:35;12.50;;;6.72;;
55224;SDS011;41091;49.400;8.684;2023-04-06T04:33:01;7.88;;;5.68;;
55224;SDS011;41091;49.400;8.684;2023-04-06T04:35:28;10.52;;;5.78;;
55224;SDS011;41091;49.400;8.684;2023-04-06T04:37:53;7.70;;;5.78;;
55224;SDS011;41091;49.400;8.684;2023-04-06T04:40:19;10.95;;;5.85;;
55224;SDS011;41091;49.400;8.684;2023-04-06T04:42:45;5.85;;;5.30;;
55224;SDS011;41091;49.400;8.684;2023-04-06T04:45:11;6.00;;;5.45;;
55224;SDS011;41091;49.400;8.684;2023-04-06T04:47:36;5.82;;;5.22;;
55224;SDS011;41091;49.400;8.684;2023-04-06T04:50:04;6.32;;;4.50;;
55224;SDS011;41091;49.400;8.684;2023-04-06T04:52:32;9.93;;;5.60;;
55224;SDS011;41091;49.400;8.684;2023-04-06T04:54:58;8.82;;;6.55;;
55224;SDS011;41091;49.400;8.684;2023-04-06T04:57:25;16.98;;;7.22;;
55224;SDS011;41091;49.400;8.684;2023-04-06T04:59:51;15.95;;;6.57;;
55224;SDS011;41091;49.400;8.684;2023-04-06T05:02:19;7.22;;;5.35;;
55224;SDS011;41091;49.400;8.684;2023-04-06T05:04:49;7.53;;;6.45;;
55224;SDS011;41091;49.400;8.684;2023-04-06T05:07:14;10.63;;;5.55;;
55224;SDS011;41091;49.400;8.684;2023-04-06T05:09:43;6.45;;;5.55;;
55224;SDS011;41091;49.400;8.684;2023-04-06T05:12:09;7.88;;;5.03;;
55224;SDS011;41091;49.400;8.684;2023-04-06T05:14:37;9.43;;;5.50;;
55224;SDS011;41091;49.400;8.684;2023-04-06T05:17:05;11.68;;;4.75;;
55224;SDS011;41091;49.400;8.684;2023-04-06T05:19:30;6.32;;;5.03;;
55224;SDS011;41091;49.400;8.684;2023-04-06T05:21:56;10.35;;;6.07;;
55224;SDS011;41091;49.400;8.684;2023-04-06T05:24:24;11.38;;;4.97;;
55224;SDS011;41091;49.400;8.684;2023-04-06T05:26:50;7.90;;;5.13;;
55224;SDS011;41091;49.400;8.684;2023-04-06T05:29:20;8.80;;;5.55;;
55224;SDS011;41091;49.400;8.684;2023-04-06T05:31:46;8.18;;;4.97;;
55224;SDS011;41091;49.400;8.684;2023-04-06T05:34:11;4.40;;;4.00;;
55224;SDS011;41091;49.400;8.684;2023-04-06T05:36:37;5.45;;;4.90;;
55224;SDS011;41091;49.400;8.684;2023-04-06T05:39:03;5.80;;;4.05;;
55224;SDS011;41091;49.400;8.684;2023-04-06T05:41:28;4.82;;;4.50;;
55224;SDS011;41091;49.400;8.684;2023-04-06T05:43:56;6.13;;;4.22;;
55224;SDS011;41091;49.400;8.684;2023-04-06T05:46:21;16.55;;;8.32;;
55224;SDS011;41091;49.400;8.684;2023-04-06T05:48:46;15.90;;;9.52;;
55224;SDS011;41091;49.400;8.684;2023-04-06T05:51:12;15.70;;;9.18;;
55224;SDS011;41091;49.400;8.684;2023-04-06T05:53:40;11.57;;;7.57;;
55224;SDS011;41091;49.400;8.684;2023-04-06T05:56:05;12.57;;;7.07;;
55224;SDS011;41091;49.400;8.684;2023-04-06T05:58:31;12.02;;;8.63;;
55224;SDS011;41091;49.400;8.684;2023-04-06T06:00:57;15.00;;;10.95;;
55224;SDS011;41091;49.400;8.684;2023-04-06T06:03:23;20.95;;;12.82;;
55224;SDS011;41091;49.400;8.684;2023-04-06T06:05:48;15.52;;;10.25;;
55224;SDS011;41091;49.400;8.684;2023-04-06T06:08:14;8.88;;;7.85;;
55224;SDS011;41091;49.400;8.684;2023-04-06T06:10:39;11.43;;;6.50;;
55224;SDS011;41091;49.400;8.684;2023-04-06T06:13:05;20.10;;;6.05;;
55224;SDS011;41091;49.400;8.684;2023-04-06T06:15:33;10.30;;;6.15;;
55224;SDS011;41091;49.400;8.684;2023-04-06T06:18:00;11.25;;;6.70;;
55224;SDS011;41091;49.400;8.684;2023-04-06T06:20:26;11.82;;;6.57;;
55224;SDS011;41091;49.400;8.684;2023-04-06T06:22:52;11.70;;;6.97;;
55224;SDS011;41091;49.400;8.684;2023-04-06T06:25:18;13.20;;;6.43;;
55224;SDS011;41091;49.400;8.684;2023-04-06T06:27:44;6.60;;;5.95;;
55224;SDS011;41091;49.400;8.684;2023-04-06T06:30:10;7.68;;;6.72;;
55224;SDS011;41091;49.400;8.684;2023-04-06T06:32:37;8.35;;;6.72;;
55224;SDS011;41091;49.400;8.684;2023-04-06T06:35:03;18.17;;;7.15;;
55224;SDS011;41091;49.400;8.684;2023-04-06T06:37:28;7.32;;;6.60;;
55224;SDS011;41091;49.400;8.684;2023-04-06T06:39:56;8.95;;;7.85;;
55224;SDS011;41091;49.400;8.684;2023-04-06T06:42:22;12.10;;;6.18;;
55224;SDS011;41091;49.400;8.684;2023-04-06T06:44:47;8.00;;;6.85;;
55224;SDS011;41091;49.400;8.684;2023-04-06T06:47:12;16.70;;;8.45;;
55224;SDS011;41091;49.400;8.684;2023-04-06T06:49:38;14.35;;;7.00;;
55224;SDS011;41091;49.400;8.684;2023-04-06T06:52:05;8.60;;;7.28;;
55224;SDS011;41091;49.400;8.684;2023-04-06T06:54:31;8.45;;;7.47;;
55224;SDS011;41091;49.400;8.684;2023-04-06T06:56:56;7.13;;;6.50;;
55224;SDS011;41091;49.400;8.684;2023-04-06T06:59:21;7.85;;;6.13;;
55224;SDS011;41091;49.400;8.684;2023-04-06T07:01:49;13.25;;;7.07;;
55224;SDS011;41091;49.400;8.684;2023-04-06T07:04:15;11.15;;;6.35;;
55224;SDS011;41091;49.400;8.684;2023-04-06T07:06:43;6.07;;;5.57;;
55224;SDS011;41091;49.400;8.684;2023-04-06T07:09:08;7.85;;;6.40;;
55224;SDS011;41091;49.400;8.684;2023-04-06T07:11:33;8.18;;;6.38;;
55224;SDS011;41091;49.400;8.684;2023-04-06T07:13:59;20.48;;;7.57;;
55224;SDS011;41091;49.400;8.684;2023-04-06T07:16:26;14.90;;;5.70;;
55224;SDS011;41091;49.400;8.684;2023-04-06T07:18:52;9.45;;;7.18;;
55224;SDS011;41091;49.400;8.684;2023-04-06T07:21:17;13.20;;;7.47;;
55224;SDS011;41091;49.400;8.684;2023-04-06T07:23:43;7.53;;;6.68;;
55224;SDS011;41091;49.400;8.684;2023-04-06T07:26:12;18.45;;;6.47;;
55224;SDS011;41091;49.400;8.684;2023-04-06T07:28:38;9.73;;;6.63;;
55224;SDS011;41091;49.400;8.684;2023-04-06T07:31:03;13.35;;;7.70;;
55224;SDS011;41091;49.400;8.684;2023-04-06T07:33:29;7.93;;;7.13;;
55224;SDS011;41091;49.400;8.684;2023-04-06T07:35:57;9.38;;;6.50;;
55224;SDS011;41091;49.400;8.684;2023-04-06T07:38:26;8.88;;;6.60;;
55224;SDS011;41091;49.400;8.684;2023-04-06T07:40:53;9.68;;;6.68;;
55224;SDS011;41091;49.400;8.684;2023-04-06T07:43:19;8.07;;;5.63;;
55224;SDS011;41091;49.400;8.684;2023-04-06T07:45:44;6.13;;;5.40;;
55224;SDS011;41091;49.400;8.684;2023-04-06T07:48:10;8.45;;;6.10;;
55224;SDS011;41091;49.400;8.684;2023-04-06T07:50:35;6.05;;;5.50;;
55224;SDS011;41091;49.400;8.684;2023-04-06T07:53:01;8.45;;;5.70;;
55224;SDS011;41091;49.400;8.684;2023-04-06T07:55:29;9.80;;;6.18;;
55224;SDS011;41091;49.400;8.684;2023-04-06T07:57:55;9.25;;;5.63;;
55224;SDS011;41091;49.400;8.684;2023-04-06T08:00:20;12.43;;;5.40;;
55224;SDS011;41091;49.400;8.684;2023-04-06T08:02:49;7.80;;;5.82;;
55224;SDS011;41091;49.400;8.684;2023-04-06T08:05:14;23.45;;;9.65;;
55224;SDS011;41091;49.400;8.684;2023-04-06T08:07:40;21.80;;;10.52;;
55224;SDS011;41091;49.400;8.684;2023-04-06T08:10:06;14.98;;;6.80;;
55224;SDS011;41091;49.400;8.684;2023-04-06T08:12:32;9.52;;;6.90;;
55224;SDS011;41091;49.400;8.684;2023-04-06T08:14:58;10.80;;;6.22;;
55224;SDS011;41091;49.400;8.684;2023-04-06T08:17:24;16.50;;;6.70;;
55224;SDS011;41091;49.400;8.684;2023-04-06T08:22:22;6.68;;;5.38;;
55224;SDS011;41091;49.400;8.684;2023-04-06T08:24:48;15.00;;;5.90;;
55224;SDS011;41091;49.400;8.684;2023-04-06T08:27:13;7.57;;;5.75;;
55224;SDS011;41091;49.400;8.684;2023-04-06T08:29:39;11.75;;;6.38;;
55224;SDS011;41091;49.400;8.684;2023-04-06T08:32:05;6.00;;;5.40;;
55224;SDS011;41091;49.400;8.684;2023-04-06T08:34:33;5.03;;;4.60;;
55224;SDS011;41091;49.400;8.684;2023-04-06T08:36:58;6.53;;;5.15;;
55224;SDS011;41091;49.400;8.684;2023-04-06T08:39:24;8.25;;;6.07;;
55224;SDS011;41091;49.400;8.684;2023-04-06T08:41:53;8.90;;;5.57;;
55224;SDS011;41091;49.400;8.684;2023-04-06T08:44:22;7.30;;;4.90;;
55224;SDS011;41091;49.400;8.684;2023-04-06T08:46:50;6.43;;;4.93;;
55224;SDS011;41091;49.400;8.684;2023-04-06T08:49:18;10.02;;;5.25;;
55224;SDS011;41091;49.400;8.684;2023-04-06T08:51:44;5.97;;;4.95;;
55224;SDS011;41091;49.400;8.684;2023-04-06T08:54:09;17.20;;;5.93;;
55224;SDS011;41091;49.400;8.684;2023-04-06T08:56:37;8.13;;;4.93;;
55224;SDS011;41091;49.400;8.684;2023-04-06T08:59:03;10.35;;;4.95;;
55224;SDS011;41091;49.400;8.684;2023-04-06T09:01:30;6.95;;;5.50;;
55224;SDS011;41091;49.400;8.684;2023-04-06T09:03:59;18.83;;;6.00;;
55224;SDS011;41091;49.400;8.684;2023-04-06T09:06:25;6.47;;;5.70;;
55224;SDS011;41091;49.400;8.684;2023-04-06T09:08:52;7.28;;;5.45;;
55224;SDS011;41091;49.400;8.684;2023-04-06T09:11:17;10.27;;;5.40;;
55224;SDS011;41091;49.400;8.684;2023-04-06T09:16:15;5.30;;;4.90;;
55224;SDS011;41091;49.400;8.684;2023-04-06T09:18:41;9.05;;;5.00;;
55224;SDS011;41091;49.400;8.684;2023-04-06T09:21:06;6.65;;;5.25;;
55224;SDS011;41091;49.400;8.684;2023-04-06T09:23:32;5.70;;;5.07;;
55224;SDS011;41091;49.400;8.684;2023-04-06T09:26:31;5.13;;;4.63;;
55224;SDS011;41091;49.400;8.684;2023-04-06T09:28:52;4.75;;;4.35;;
55224;SDS011;41091;49.400;8.684;2023-04-06T09:31:22;6.38;;;4.45;;
55224;SDS011;41091;49.400;8.684;2023-04-06T09:33:52;4.75;;;3.70;;
55224;SDS011;41091;49.400;8.684;2023-04-06T09:36:18;4.85;;;4.28;;
55224;SDS011;41091;49.400;8.684;2023-04-06T09:38:51;6.90;;;4.80;;
55224;SDS011;41091;49.400;8.684;2023-04-06T09:41:20;4.57;;;4.15;;
55224;SDS011;41091;49.400;8.684;2023-04-06T09:44:11;7.68;;;4.22;;
55224;SDS011;41091;49.400;8.684;2023-04-06T09:46:37;14.80;;;5.07;;
55224;SDS011;41091;49.400;8.684;2023-04-06T09:49:04;9.02;;;4.28;;
55224;SDS011;41091;49.400;8.684;2023-04-06T09:51:36;8.60;;;5.00;;
55224;SDS011;41091;49.400;8.684;2023-04-06T09:54:02;8.38;;;5.35;;
55224;SDS011;41091;49.400;8.684;2023-04-06T09:56:30;5.18;;;4.68;;
55224;SDS011;41091;49.400;8.684;2023-04-06T09:59:02;7.40;;;5.40;;
55224;SDS011;41091;49.400;8.684;2023-04-06T10:01:35;6.07;;;4.57;;
55224;SDS011;41091;49.400;8.684;2023-04-06T10:06:27;9.45;;;5.22;;
55224;SDS011;41091;49.400;8.684;2023-04-06T10:08:58;13.75;;;5.28;;
55224;SDS011;41091;49.400;8.684;2023-04-06T10:11:24;5.97;;;4.80;;
55224;SDS011;41091;49.400;8.684;2023-04-06T10:13:52;4.32;;;4.03;;
55224;SDS011;41091;49.400;8.684;2023-04-06T10:16:17;6.18;;;5.18;;
55224;SDS011;41091;49.400;8.684;2023-04-06T10:18:50;6.45;;;4.97;;
55224;SDS011;41091;49.400;8.684;2023-04-06T10:21:21;10.77;;;5.03;;
55224;SDS011;41091;49.400;8.684;2023-04-06T10:24:00;6.15;;;5.57;;
55224;SDS011;41091;49.400;8.684;2023-04-06T10:26:29;8.45;;;6.32;;
55224;SDS011;41091;49.400;8.684;2023-04-06T10:29:01;14.07;;;7.38;;
55224;SDS011;41091;49.400;8.684;2023-04-06T10:31:31;9.43;;;5.68;;
55224;SDS011;41091;49.400;8.684;2023-04-06T10:34:04;9.88;;;4.68;;
55224;SDS011;41091;49.400;8.684;2023-04-06T10:36:32;5.25;;;4.35;;
55224;SDS011;41091;49.400;8.684;2023-04-06T10:39:02;6.10;;;4.60;;
55224;SDS011;41091;49.400;8.684;2023-04-06T10:41:33;8.68;;;4.40;;
55224;SDS011;41091;49.400;8.684;2023-04-06T10:46:26;9.60;;;4.38;;
55224;SDS011;41091;49.400;8.684;2023-04-06T10:48:53;5.03;;;4.60;;
55224;SDS011;41091;49.400;8.684;2023-04-06T10:51:24;5.80;;;4.65;;
55224;SDS011;41091;49.400;8.684;2023-04-06T10:53:55;7.72;;;4.95;;
55224;SDS011;41091;49.400;8.684;2023-04-06T10:56:23;5.10;;;4.18;;
55224;SDS011;41091;49.400;8.684;2023-04-06T10:58:53;4.53;;;4.15;;
55224;SDS011;41091;49.400;8.684;2023-04-06T11:01:21;4.55;;;4.07;;
55224;SDS011;41091;49.400;8.684;2023-04-06T11:03:52;8.63;;;3.80;;
55224;SDS011;41091;49.400;8.684;2023-04-06T11:08:48;6.60;;;4.17;;
55224;SDS011;41091;49.400;8.684;2023-04-06T11:11:17;3.88;;;3.58;;
55224;SDS011;41091;49.400;8.684;2023-04-06T11:18:55;6.20;;;3.72;;
55224;SDS011;41091;49.400;8.684;2023-04-06T11:21:31;5.30;;;3.72;;
55224;SDS011;41091;49.400;8.684;2023-04-06T11:24:07;7.45;;;4.32;;
55224;SDS011;41091;49.400;8.684;2023-04-06T11:26:39;6.03;;;3.90;;
55224;SDS011;41091;49.400;8.684;2023-04-06T11:29:11;4.15;;;3.75;;
55224;SDS011;41091;49.400;8.684;2023-04-06T11:31:40;4.97;;;4.40;;
55224;SDS011;41091;49.400;8.684;2023-04-06T11:34:11;8.50;;;4.20;;
55224;SDS011;41091;49.400;8.684;2023-04-06T11:36:39;6.15;;;4.03;;
55224;SDS011;41091;49.400;8.684;2023-04-06T11:39:08;4.55;;;4.15;;
55224;SDS011;41091;49.400;8.684;2023-04-06T11:41:34;8.20;;;3.85;;
55224;SDS011;41091;49.400;8.684;2023-04-06T11:44:01;5.82;;;4.15;;
55224;SDS011;41091;49.400;8.684;2023-04-06T11:46:28;4.07;;;3.65;;
55224;SDS011;41091;49.400;8.684;2023-04-06T11:48:53;4.82;;;4.00;;
55224;SDS011;41091;49.400;8.684;2023-04-06T11:51:23;6.72;;;5.72;;
55224;SDS011;41091;49.400;8.684;2023-04-06T11:53:51;4.07;;;3.78;;
55224;SDS011;41091;49.400;8.684;2023-04-06T11:56:50;4.05;;;3.72;;
55224;SDS011;41091;49.400;8.684;2023-04-06T11:59:11;4.82;;;3.75;;
55224;SDS011;41091;49.400;8.684;2023-04-06T12:01:44;7.18;;;4.03;;
55224;SDS011;41091;49.400;8.684;2023-04-06T12:04:12;6.30;;;3.95;;
55224;SDS011;41091;49.400;8.684;2023-04-06T12:06:40;5.38;;;4.45;;
55224;SDS011;41091;49.400;8.684;2023-04-06T12:09:06;4.35;;;3.92;;
55224;SDS011;41091;49.400;8.684;2023-04-06T12:11:33;3.78;;;3.45;;
55224;SDS011;41091;49.400;8.684;2023-04-06T12:13:59;6.47;;;3.60;;
55224;SDS011;41091;49.400;8.684;2023-04-06T12:16:29;5.97;;;3.60;;
55224;SDS011;41091;49.400;8.684;2023-04-06T12:18:54;3.65;;;3.38;;
55224;SDS011;41091;49.400;8.684;2023-04-06T12:21:22;7.43;;;4.28;;
55224;SDS011;41091;49.400;8.684;2023-04-06T12:23:50;3.83;;;3.53;;
55224;SDS011;41091;49.400;8.684;2023-04-06T12:26:15;5.47;;;4.00;;
55224;SDS011;41091;49.400;8.684;2023-04-06T12:28:41;4.50;;;4.13;;
55224;SDS011;41091;49.400;8.684;2023-04-06T12:31:06;4.82;;;4.28;;
55224;SDS011;41091;49.400;8.684;2023-04-06T12:33:31;5.38;;;4.82;;
55224;SDS011;41091;49.400;8.684;2023-04-06T12:35:57;7.35;;;4.50;;
55224;SDS011;41091;49.400;8.684;2023-04-06T12:38:22;4.43;;;4.03;;
55224;SDS011;41091;49.400;8.684;2023-04-06T12:40:47;6.20;;;4.22;;
55224;SDS011;41091;49.400;8.684;2023-04-06T12:43:13;4.95;;;4.25;;
55224;SDS011;41091;49.400;8.684;2023-04-06T12:45:39;4.90;;;4.45;;
55224;SDS011;41091;49.400;8.684;2023-04-06T12:48:05;3.63;;;3.33;;
55224;SDS011;41091;49.400;8.684;2023-04-06T12:50:33;6.07;;;5.05;;
55224;SDS011;41091;49.400;8.684;2023-04-06T12:52:59;6.15;;;5.18;;
55224;SDS011;41091;49.400;8.684;2023-04-06T12:55:29;6.35;;;5.50;;
55224;SDS011;41091;49.400;8.684;2023-04-06T12:57:59;5.97;;;4.72;;
55224;SDS011;41091;49.400;8.684;2023-04-06T13:00:26;10.00;;;4.18;;
55224;SDS011;41091;49.400;8.684;2023-04-06T13:02:54;5.32;;;4.28;;
55224;SDS011;41091;49.400;8.684;2023-04-06T13:05:20;4.57;;;3.90;;
55224;SDS011;41091;49.400;8.684;2023-04-06T13:07:45;4.47;;;4.07;;
55224;SDS011;41091;49.400;8.684;2023-04-06T13:10:11;4.97;;;4.22;;
55224;SDS011;41091;49.400;8.684;2023-04-06T13:12:37;4.28;;;3.88;;
55224;SDS011;41091;49.400;8.684;2023-04-06T13:15:05;6.45;;;5.03;;
55224;SDS011;41091;49.400;8.684;2023-04-06T13:17:33;5.97;;;4.43;;
55224;SDS011;41091;49.400;8.684;2023-04-06T13:20:01;6.13;;;4.45;;
55224;SDS011;41091;49.400;8.684;2023-04-06T13:22:26;8.52;;;4.65;;
55224;SDS011;41091;49.400;8.684;2023-04-06T13:24:52;10.65;;;4.90;;
55224;SDS011;41091;49.400;8.684;2023-04-06T13:29:47;7.60;;;4.67;;
55224;SDS011;41091;49.400;8.684;2023-04-06T13:32:12;4.85;;;4.38;;
55224;SDS011;41091;49.400;8.684;2023-04-06T13:34:38;8.48;;;4.93;;
55224;SDS011;41091;49.400;8.684;2023-04-06T13:37:09;8.75;;;4.80;;
55224;SDS011;41091;49.400;8.684;2023-04-06T13:39:39;9.75;;;5.20;;
55224;SDS011;41091;49.400;8.684;2023-04-06T13:42:05;10.38;;;5.20;;
55224;SDS011;41091;49.400;8.684;2023-04-06T13:44:31;5.85;;;4.55;;
55224;SDS011;41091;49.400;8.684;2023-04-06T13:46:57;4.82;;;4.05;;
55224;SDS011;41091;49.400;8.684;2023-04-06T13:49:23;5.45;;;4.72;;
55224;SDS011;41091;49.400;8.684;2023-04-06T13:51:51;5.65;;;5.03;;
55224;SDS011;41091;49.400;8.684;2023-04-06T13:54:16;7.03;;;5.32;;
55224;SDS011;41091;49.400;8.684;2023-04-06T13:56:44;6.60;;;5.35;;
55224;SDS011;41091;49.400;8.684;2023-04-06T13:59:10;6.53;;;4.70;;
55224;SDS011;41091;49.400;8.684;2023-04-06T14:01:35;7.47;;;4.72;;
55224;SDS011;41091;49.400;8.684;2023-04-06T14:04:00;6.05;;;5.22;;
55224;SDS011;41091;49.400;8.684;2023-04-06T14:06:28;5.50;;;5.00;;
55224;SDS011;41091;49.400;8.684;2023-04-06T14:08:56;6.93;;;4.90;;
55224;SDS011;41091;49.400;8.684;2023-04-06T14:11:21;6.95;;;3.97;;
55224;SDS011;41091;49.400;8.684;2023-04-06T14:13:47;9.00;;;5.25;;
55224;SDS011;41091;49.400;8.684;2023-04-06T14:16:12;4.88;;;4.40;;
55224;SDS011;41091;49.400;8.684;2023-04-06T14:18:40;5.30;;;4.45;;
55224;SDS011;41091;49.400;8.684;2023-04-06T14:21:06;5.30;;;4.80;;
55224;SDS011;41091;49.400;8.684;2023-04-06T14:23:31;5.72;;;4.65;;
55224;SDS011;41091;49.400;8.684;2023-04-06T14:26:01;5.13;;;4.05;;
55224;SDS011;41091;49.400;8.684;2023-04-06T14:28:33;4.32;;;3.78;;
55224;SDS011;41091;49.400;8.684;2023-04-06T14:31:09;8.15;;;4.70;;
55224;SDS011;41091;49.400;8.684;2023-04-06T14:33:39;7.97;;;5.35;;
55224;SDS011;41091;49.400;8.684;2023-04-06T14:36:05;9.50;;;4.70;;
55224;SDS011;41091;49.400;8.684;2023-04-06T14:38:31;6.32;;;5.07;;
55224;SDS011;41091;49.400;8.684;2023-04-06T14:40:57;6.30;;;5.50;;
55224;SDS011;41091;49.400;8.684;2023-04-06T14:43:27;7.13;;;5.05;;
55224;SDS011;41091;49.400;8.684;2023-04-06T14:45:59;11.98;;;6.38;;
55224;SDS011;41091;49.400;8.684;2023-04-06T14:48:27;9.87;;;5.60;;
55224;SDS011;41091;49.400;8.684;2023-04-06T14:50:53;11.07;;;5.72;;
55224;SDS011;41091;49.400;8.684;2023-04-06T14:53:23;6.90;;;5.10;;
55224;SDS011;41091;49.400;8.684;2023-04-06T14:55:51;6.75;;;4.82;;
55224;SDS011;41091;49.400;8.684;2023-04-06T14:58:18;6.57;;;5.57;;
55224;SDS011;41091;49.400;8.684;2023-04-06T15:00:44;9.63;;;5.82;;
55224;SDS011;41091;49.400;8.684;2023-04-06T15:03:09;9.27;;;5.10;;
55224;SDS011;41091;49.400;8.684;2023-04-06T15:05:34;12.18;;;6.90;;